Georgetown, Connecticut
Current Conditions -  °F | °C
As of 11:53 AM on Sunday 21 Dec 2014 (Local Time) from KDXR Reporting Station
Light Snow Light Snow  
Wind Chill: 32°   Ceiling: 1400
Heat Index: 32°   Visibility: 1.2mi
Dew Point: 27°   Wind: 3mph
Humidity: 82%   Direction: 310°NW
Pressure: 30.28"   Gusts: NA
Location:  41.26°N, 73.43°W
Report Text: KDXR 211653Z 31003KT 1 1/4SM -SN OVC014 00/M03 A3028 RMK AO2 SLP259 P0000 T00001028
Loading
Personal Weather Stations






























Interactive Weather Map New forecast layout! Learn more

10-Day Weather Forecast

Advertisements
Track Severe Weather on mobile